REU275 FMEE-FACT
Flight info
| Callsign | REU275 |
|---|---|
| Flight time | 4h 4m |
| Altitude | 36000 |
| Route | GETIR2J GETIR UA402 EVIDO DCT UTIMO/N0480F380 UZ37 GABGO UQ31 ESRUK UQ51 GETEN GETEN1A |
| Aircraft | B77W/H-SDE1E2E3FGHIJ2J3J4J5M1RWXY/LB1D1 |
Departure
| Time | 2026-04-17 05:55 |
|---|---|
| Airport | Roland Garros Airport (FMEE) |
Arrival
| Time | 2026-04-17 09:59 |
|---|---|
| Airport | Cape Town International Airport (FACT) |
| Time | Latitude | Longitude | Altitude | Speed | Heading |
|---|---|---|---|---|---|
| 2026-04-17 05:22 | -20.89076 | 55.51234 | 40 ft | 0 kts | 206° |
| 2026-04-17 05:42 | -20.89075 | 55.51234 | 56 ft | 2 kts | 206° |
| 2026-04-17 05:42 | -20.89058 | 55.51244 | 56 ft | 3 kts | 217° |
| 2026-04-17 05:42 | -20.89043 | 55.51258 | 56 ft | 3 kts | 231° |
| 2026-04-17 05:42 | -20.89033 | 55.51274 | 56 ft | 3 kts | 249° |
| 2026-04-17 05:43 | -20.89028 | 55.51293 | 56 ft | 3 kts | 267° |
| 2026-04-17 05:43 | -20.89028 | 55.51312 | 57 ft | 3 kts | 283° |
| 2026-04-17 05:43 | -20.89034 | 55.51332 | 57 ft | 3 kts | 295° |
| 2026-04-17 05:43 | -20.89036 | 55.51337 | 57 ft | 5 kts | 296° |
| 2026-04-17 05:49 | -20.89036 | 55.51335 | 57 ft | 2 kts | 298° |
| 2026-04-17 05:49 | -20.89019 | 55.51304 | 57 ft | 7 kts | 298° |
| 2026-04-17 05:49 | -20.89001 | 55.51267 | 56 ft | 5 kts | 298° |
| 2026-04-17 05:50 | -20.88981 | 55.51225 | 60 ft | 7 kts | 296° |
| 2026-04-17 05:50 | -20.88946 | 55.51187 | 56 ft | 8 kts | 336° |
| 2026-04-17 05:50 | -20.88913 | 55.51175 | 56 ft | 1 kts | 340° |
| 2026-04-17 05:50 | -20.88893 | 55.51168 | 55 ft | 4 kts | 343° |
| 2026-04-17 05:51 | -20.88843 | 55.51153 | 55 ft | 15 kts | 344° |
| 2026-04-17 05:51 | -20.88738 | 55.51101 | 52 ft | 16 kts | 314° |
| 2026-04-17 05:51 | -20.88706 | 55.50990 | 49 ft | 16 kts | 282° |
| 2026-04-17 05:51 | -20.88681 | 55.50872 | 49 ft | 16 kts | 284° |
| 2026-04-17 05:52 | -20.88660 | 55.50756 | 50 ft | 15 kts | 284° |
| 2026-04-17 05:52 | -20.88642 | 55.50682 | 50 ft | 10 kts | 278° |
| 2026-04-17 05:52 | -20.88627 | 55.50607 | 50 ft | 10 kts | 281° |
| 2026-04-17 05:52 | -20.88620 | 55.50578 | 48 ft | 3 kts | 296° |
| 2026-04-17 05:53 | -20.88602 | 55.50547 | 48 ft | 7 kts | 304° |
| 2026-04-17 05:53 | -20.88582 | 55.50506 | 46 ft | 5 kts | 270° |
| 2026-04-17 05:53 | -20.88608 | 55.50486 | 48 ft | 5 kts | 178° |
| 2026-04-17 05:53 | -20.88622 | 55.50516 | 50 ft | 5 kts | 74° |
| 2026-04-17 05:54 | -20.88620 | 55.50556 | 50 ft | 6 kts | 97° |
| 2026-04-17 05:54 | -20.88623 | 55.50576 | 50 ft | 0 kts | 100° |
| 2026-04-17 05:54 | -20.88624 | 55.50582 | 50 ft | 9 kts | 101° |
| 2026-04-17 05:54 | -20.88703 | 55.50979 | 52 ft | 102 kts | 104° |
| 2026-04-17 05:55 | -20.88922 | 55.52030 | 54 ft | 183 kts | 102° |
| 2026-04-17 05:55 | -20.89168 | 55.53409 | 667 ft | 190 kts | 88° |
| 2026-04-17 05:55 | -20.89210 | 55.54754 | 1845 ft | 176 kts | 82° |
| 2026-04-17 05:55 | -20.88886 | 55.56024 | 2275 ft | 185 kts | 45° |
| 2026-04-17 05:56 | -20.87934 | 55.57063 | 2398 ft | 197 kts | 39° |
| 2026-04-17 05:56 | -20.87112 | 55.58271 | 2738 ft | 211 kts | 58° |
| 2026-04-17 05:56 | -20.86706 | 55.59823 | 2949 ft | 233 kts | 94° |
| 2026-04-17 05:56 | -20.87342 | 55.61491 | 3316 ft | 258 kts | 131° |
| 2026-04-17 05:57 | -20.88884 | 55.62501 | 4036 ft | 268 kts | 166° |
| 2026-04-17 05:57 | -20.90748 | 55.62430 | 4849 ft | 275 kts | 199° |
| 2026-04-17 05:57 | -20.92307 | 55.61278 | 5729 ft | 277 kts | 231° |
| 2026-04-17 05:57 | -20.93352 | 55.59598 | 6556 ft | 277 kts | 228° |
| 2026-04-17 05:58 | -20.95015 | 55.58648 | 6994 ft | 282 kts | 188° |
| 2026-04-17 05:58 | -20.96857 | 55.57917 | 7511 ft | 283 kts | 207° |
| 2026-04-17 05:58 | -20.98365 | 55.56579 | 8061 ft | 287 kts | 231° |
| 2026-04-17 05:59 | -21.00266 | 55.52868 | 9324 ft | 286 kts | 240° |
| 2026-04-17 05:59 | -21.01173 | 55.50980 | 9918 ft | 289 kts | 240° |
| 2026-04-17 05:59 | -21.02136 | 55.49079 | 10366 ft | 297 kts | 239° |
| 2026-04-17 05:59 | -21.03197 | 55.47120 | 10498 ft | 316 kts | 240° |
| 2026-04-17 06:00 | -21.04368 | 55.45054 | 10621 ft | 336 kts | 237° |
| 2026-04-17 06:00 | -21.05669 | 55.42903 | 10781 ft | 352 kts | 236° |
| 2026-04-17 06:00 | -21.07058 | 55.40670 | 10915 ft | 367 kts | 234° |
| 2026-04-17 06:00 | -21.08504 | 55.38407 | 11172 ft | 376 kts | 235° |
| 2026-04-17 06:01 | -21.09999 | 55.36083 | 11565 ft | 381 kts | 235° |
| 2026-04-17 06:01 | -21.11526 | 55.33749 | 11995 ft | 384 kts | 234° |
| 2026-04-17 06:01 | -21.13073 | 55.31398 | 12579 ft | 387 kts | 235° |
| 2026-04-17 06:01 | -21.14619 | 55.29029 | 13244 ft | 387 kts | 235° |
| 2026-04-17 06:02 | -21.16176 | 55.26667 | 13697 ft | 390 kts | 235° |
| 2026-04-17 06:02 | -21.17738 | 55.24315 | 14029 ft | 394 kts | 235° |
| 2026-04-17 06:02 | -21.19335 | 55.21912 | 14374 ft | 397 kts | 234° |
| 2026-04-17 06:02 | -21.20938 | 55.19490 | 14822 ft | 398 kts | 235° |
| 2026-04-17 06:03 | -21.22532 | 55.17089 | 15227 ft | 399 kts | 234° |
| 2026-04-17 06:03 | -21.24154 | 55.14659 | 15527 ft | 402 kts | 234° |
| 2026-04-17 06:03 | -21.25774 | 55.12204 | 15820 ft | 405 kts | 234° |
| 2026-04-17 06:03 | -21.27405 | 55.09730 | 16139 ft | 407 kts | 234° |
| 2026-04-17 06:04 | -21.29044 | 55.07241 | 16462 ft | 408 kts | 234° |
| 2026-04-17 06:04 | -21.30685 | 55.04738 | 16781 ft | 410 kts | 235° |
| 2026-04-17 06:04 | -21.32327 | 55.02218 | 17098 ft | 416 kts | 235° |
| 2026-04-17 06:04 | -21.33985 | 54.99657 | 17831 ft | 419 kts | 235° |
| 2026-04-17 06:05 | -21.35658 | 54.97084 | 18582 ft | 422 kts | 235° |
| 2026-04-17 06:05 | -21.37348 | 54.94503 | 19229 ft | 424 kts | 234° |
| 2026-04-17 06:05 | -21.39037 | 54.91934 | 19864 ft | 427 kts | 235° |
| 2026-04-17 06:05 | -21.40757 | 54.89319 | 20499 ft | 430 kts | 235° |
| 2026-04-17 06:06 | -21.42492 | 54.86687 | 21121 ft | 432 kts | 234° |
| 2026-04-17 06:06 | -21.44242 | 54.84034 | 21680 ft | 437 kts | 235° |
| 2026-04-17 06:06 | -21.45997 | 54.81358 | 22288 ft | 440 kts | 235° |
| 2026-04-17 06:06 | -21.47762 | 54.78657 | 22920 ft | 443 kts | 235° |
| 2026-04-17 06:07 | -21.49543 | 54.75933 | 23538 ft | 445 kts | 235° |
| 2026-04-17 06:07 | -21.51332 | 54.73199 | 24026 ft | 449 kts | 235° |
| 2026-04-17 06:07 | -21.53113 | 54.70480 | 24467 ft | 453 kts | 235° |
| 2026-04-17 06:07 | -21.54934 | 54.67693 | 24917 ft | 456 kts | 235° |
| 2026-04-17 06:08 | -21.56767 | 54.64888 | 25370 ft | 460 kts | 235° |
| 2026-04-17 06:08 | -21.58606 | 54.62069 | 25822 ft | 463 kts | 235° |
| 2026-04-17 06:08 | -21.60470 | 54.59222 | 26287 ft | 466 kts | 235° |
| 2026-04-17 06:08 | -21.62338 | 54.56368 | 26723 ft | 469 kts | 235° |
| 2026-04-17 06:09 | -21.64228 | 54.53477 | 27173 ft | 473 kts | 235° |
| 2026-04-17 06:09 | -21.65484 | 54.51552 | 27455 ft | 475 kts | 235° |
| 2026-04-17 06:09 | -21.68029 | 54.47639 | 28025 ft | 479 kts | 235° |
| 2026-04-17 06:09 | -21.69297 | 54.45688 | 28297 ft | 481 kts | 235° |
| 2026-04-17 06:10 | -21.71223 | 54.42732 | 28699 ft | 484 kts | 235° |
| 2026-04-17 06:10 | -21.73163 | 54.39759 | 29078 ft | 487 kts | 235° |
| 2026-04-17 06:10 | -21.75115 | 54.36767 | 29438 ft | 490 kts | 235° |
| 2026-04-17 06:10 | -21.77051 | 54.33797 | 29773 ft | 492 kts | 235° |
| 2026-04-17 06:11 | -21.79023 | 54.30775 | 30175 ft | 493 kts | 235° |
| 2026-04-17 06:11 | -21.80989 | 54.27752 | 30606 ft | 491 kts | 235° |
| 2026-04-17 06:11 | -21.82938 | 54.24742 | 31095 ft | 489 kts | 236° |
| 2026-04-17 06:11 | -21.84879 | 54.21740 | 31561 ft | 487 kts | 236° |
| 2026-04-17 06:12 | -21.86817 | 54.18746 | 31966 ft | 486 kts | 236° |
| 2026-04-17 06:12 | -21.88751 | 54.15753 | 32376 ft | 486 kts | 236° |
| 2026-04-17 06:12 | -21.90681 | 54.12769 | 32803 ft | 485 kts | 236° |
| 2026-04-17 06:12 | -21.92610 | 54.09789 | 33231 ft | 483 kts | 236° |
| 2026-04-17 06:13 | -21.94530 | 54.06826 | 33615 ft | 483 kts | 236° |
| 2026-04-17 06:13 | -21.96454 | 54.03859 | 34008 ft | 482 kts | 236° |
| 2026-04-17 06:13 | -21.98370 | 54.00900 | 34367 ft | 481 kts | 236° |
| 2026-04-17 06:13 | -22.00279 | 53.97949 | 34703 ft | 479 kts | 236° |
| 2026-04-17 06:14 | -22.02159 | 53.95040 | 35037 ft | 478 kts | 236° |
| 2026-04-17 06:14 | -22.04059 | 53.92102 | 35372 ft | 477 kts | 236° |
| 2026-04-17 06:14 | -22.05958 | 53.89161 | 35690 ft | 476 kts | 236° |
| 2026-04-17 06:14 | -22.07852 | 53.86226 | 35973 ft | 476 kts | 236° |
| 2026-04-17 06:15 | -22.09753 | 53.83275 | 36006 ft | 480 kts | 236° |
| 2026-04-17 06:15 | -22.13557 | 53.77365 | 36037 ft | 477 kts | 236° |
| 2026-04-17 06:16 | -22.17300 | 53.71553 | 36040 ft | 472 kts | 237° |
| 2026-04-17 06:16 | -22.21049 | 53.65726 | 36043 ft | 472 kts | 236° |
| 2026-04-17 06:17 | -22.24791 | 53.59901 | 36046 ft | 472 kts | 236° |
| 2026-04-17 06:17 | -22.28535 | 53.54065 | 36045 ft | 473 kts | 236° |
| 2026-04-17 06:18 | -22.32275 | 53.48209 | 36044 ft | 474 kts | 237° |
| 2026-04-17 06:18 | -22.36018 | 53.42336 | 36043 ft | 475 kts | 237° |
| 2026-04-17 06:19 | -22.39696 | 53.36413 | 36036 ft | 474 kts | 241° |
| 2026-04-17 06:19 | -22.42636 | 53.30111 | 36050 ft | 472 kts | 245° |
| 2026-04-17 06:20 | -22.45453 | 53.23683 | 36051 ft | 472 kts | 245° |
| 2026-04-17 06:20 | -22.48257 | 53.17245 | 36050 ft | 472 kts | 246° |
| 2026-04-17 06:21 | -22.51044 | 53.10845 | 36045 ft | 473 kts | 246° |
| 2026-04-17 06:21 | -22.53860 | 53.04413 | 36046 ft | 472 kts | 245° |
| 2026-04-17 06:22 | -22.56671 | 52.97990 | 36047 ft | 472 kts | 245° |
| 2026-04-17 06:22 | -22.59495 | 52.91553 | 36052 ft | 472 kts | 245° |
| 2026-04-17 06:23 | -22.62299 | 52.85117 | 36036 ft | 472 kts | 246° |
| 2026-04-17 06:23 | -22.65084 | 52.78725 | 36036 ft | 472 kts | 244° |
| 2026-04-17 06:24 | -22.67893 | 52.72387 | 36050 ft | 465 kts | 245° |
| 2026-04-17 06:24 | -22.70679 | 52.65970 | 36041 ft | 474 kts | 246° |
| 2026-04-17 06:25 | -22.73493 | 52.59476 | 36038 ft | 478 kts | 245° |
| 2026-04-17 06:25 | -22.76335 | 52.52950 | 36036 ft | 479 kts | 245° |
| 2026-04-17 06:26 | -22.79167 | 52.46420 | 36041 ft | 478 kts | 244° |
| 2026-04-17 06:26 | -22.81979 | 52.39908 | 36040 ft | 475 kts | 245° |
| 2026-04-17 06:27 | -22.84761 | 52.33472 | 36043 ft | 474 kts | 245° |
| 2026-04-17 06:27 | -22.87537 | 52.27022 | 36043 ft | 470 kts | 246° |
| 2026-04-17 06:28 | -22.90298 | 52.20587 | 36041 ft | 469 kts | 244° |
| 2026-04-17 06:28 | -22.93044 | 52.14237 | 36045 ft | 465 kts | 245° |
| 2026-04-17 06:29 | -22.95784 | 52.07831 | 36049 ft | 473 kts | 245° |
| 2026-04-17 06:29 | -22.98555 | 52.01343 | 36048 ft | 477 kts | 245° |
| 2026-04-17 06:30 | -23.01347 | 51.94795 | 36044 ft | 478 kts | 245° |
| 2026-04-17 06:30 | -23.04133 | 51.88239 | 36047 ft | 477 kts | 246° |
| 2026-04-17 06:31 | -23.06912 | 51.81689 | 36043 ft | 476 kts | 246° |
| 2026-04-17 06:31 | -23.09696 | 51.75164 | 36042 ft | 475 kts | 246° |
| 2026-04-17 06:32 | -23.12458 | 51.68691 | 36043 ft | 475 kts | 246° |
| 2026-04-17 06:32 | -23.15226 | 51.62182 | 36040 ft | 474 kts | 246° |
| 2026-04-17 06:33 | -23.18016 | 51.55693 | 36036 ft | 474 kts | 245° |
| 2026-04-17 06:33 | -23.20797 | 51.49190 | 36043 ft | 471 kts | 245° |
| 2026-04-17 06:34 | -23.23540 | 51.42710 | 36053 ft | 472 kts | 246° |
| 2026-04-17 06:34 | -23.26246 | 51.36171 | 36047 ft | 474 kts | 246° |
| 2026-04-17 06:35 | -23.28976 | 51.29665 | 36045 ft | 476 kts | 246° |
| 2026-04-17 06:35 | -23.31753 | 51.23096 | 36043 ft | 478 kts | 246° |
| 2026-04-17 06:36 | -23.34530 | 51.16520 | 36044 ft | 478 kts | 246° |
| 2026-04-17 06:36 | -23.37308 | 51.09933 | 36033 ft | 479 kts | 245° |
| 2026-04-17 06:37 | -23.40064 | 51.03393 | 36043 ft | 478 kts | 246° |
| 2026-04-17 06:37 | -23.42810 | 50.96804 | 36040 ft | 478 kts | 246° |
| 2026-04-17 06:38 | -23.45566 | 50.90218 | 36034 ft | 478 kts | 245° |
| 2026-04-17 06:38 | -23.48324 | 50.83638 | 36040 ft | 477 kts | 246° |
| 2026-04-17 06:39 | -23.51066 | 50.77046 | 36035 ft | 478 kts | 246° |
| 2026-04-17 06:39 | -23.53815 | 50.70448 | 36039 ft | 478 kts | 246° |
| 2026-04-17 06:40 | -23.56569 | 50.63835 | 36035 ft | 479 kts | 246° |
| 2026-04-17 06:40 | -23.59322 | 50.57216 | 36033 ft | 479 kts | 246° |
| 2026-04-17 06:41 | -23.62055 | 50.50636 | 36032 ft | 479 kts | 245° |
| 2026-04-17 06:41 | -23.64806 | 50.44013 | 36033 ft | 480 kts | 245° |
| 2026-04-17 06:42 | -23.67558 | 50.37371 | 36039 ft | 480 kts | 246° |
| 2026-04-17 06:42 | -23.70299 | 50.30715 | 36037 ft | 480 kts | 246° |
| 2026-04-17 06:43 | -23.73038 | 50.24066 | 36035 ft | 481 kts | 246° |
| 2026-04-17 06:43 | -23.75782 | 50.17404 | 36031 ft | 481 kts | 246° |
| 2026-04-17 06:44 | -23.78500 | 50.10785 | 36034 ft | 481 kts | 246° |
| 2026-04-17 06:44 | -23.81230 | 50.04114 | 36040 ft | 481 kts | 246° |
| 2026-04-17 06:45 | -23.83975 | 49.97436 | 36032 ft | 481 kts | 246° |
| 2026-04-17 06:45 | -23.86731 | 49.90766 | 36033 ft | 481 kts | 246° |
| 2026-04-17 06:46 | -23.89475 | 49.84096 | 36030 ft | 481 kts | 246° |
| 2026-04-17 06:46 | -23.92208 | 49.77412 | 36034 ft | 481 kts | 246° |
| 2026-04-17 06:47 | -23.94939 | 49.70726 | 36037 ft | 481 kts | 246° |
| 2026-04-17 06:47 | -23.97642 | 49.64080 | 36038 ft | 481 kts | 246° |
| 2026-04-17 06:48 | -24.00363 | 49.57380 | 36022 ft | 482 kts | 246° |
| 2026-04-17 06:48 | -24.03092 | 49.50683 | 36015 ft | 482 kts | 245° |
| 2026-04-17 06:49 | -24.05858 | 49.43991 | 36036 ft | 481 kts | 245° |
| 2026-04-17 06:49 | -24.08577 | 49.37312 | 36035 ft | 481 kts | 245° |
| 2026-04-17 06:50 | -24.11275 | 49.30605 | 36028 ft | 481 kts | 245° |
| 2026-04-17 06:50 | -24.13945 | 49.23950 | 36037 ft | 481 kts | 246° |
| 2026-04-17 06:51 | -24.16640 | 49.17243 | 36038 ft | 481 kts | 246° |
| 2026-04-17 06:51 | -24.19347 | 49.10519 | 36026 ft | 482 kts | 245° |
| 2026-04-17 06:52 | -24.22052 | 49.03812 | 36036 ft | 482 kts | 246° |
| 2026-04-17 06:52 | -24.24733 | 48.97063 | 36026 ft | 482 kts | 246° |
| 2026-04-17 06:53 | -24.27422 | 48.90325 | 36027 ft | 482 kts | 246° |
| 2026-04-17 06:53 | -24.30122 | 48.83589 | 36027 ft | 482 kts | 246° |
| 2026-04-17 06:54 | -24.32820 | 48.76857 | 36028 ft | 482 kts | 246° |
| 2026-04-17 06:54 | -24.35491 | 48.70166 | 36024 ft | 481 kts | 246° |
| 2026-04-17 06:55 | -24.38166 | 48.63438 | 36026 ft | 481 kts | 246° |
| 2026-04-17 06:55 | -24.40402 | 48.57832 | 36023 ft | 481 kts | 245° |
| 2026-04-17 06:56 | -24.43093 | 48.51117 | 36015 ft | 481 kts | 245° |
| 2026-04-17 06:56 | -24.45782 | 48.44395 | 36022 ft | 480 kts | 245° |
| 2026-04-17 06:57 | -24.48440 | 48.37664 | 36023 ft | 480 kts | 246° |
| 2026-04-17 06:57 | -24.51089 | 48.30931 | 36019 ft | 480 kts | 246° |
| 2026-04-17 06:58 | -24.54174 | 48.23104 | 36021 ft | 481 kts | 245° |
| 2026-04-17 06:58 | -24.56381 | 48.17504 | 36019 ft | 481 kts | 245° |
| 2026-04-17 06:59 | -24.59038 | 48.10757 | 36021 ft | 480 kts | 245° |
| 2026-04-17 06:59 | -24.61687 | 48.04010 | 36018 ft | 480 kts | 245° |
| 2026-04-17 07:00 | -24.64328 | 47.97278 | 36018 ft | 479 kts | 245° |
| 2026-04-17 07:00 | -24.66962 | 47.90544 | 36016 ft | 478 kts | 245° |
| 2026-04-17 07:01 | -24.69575 | 47.83837 | 36016 ft | 477 kts | 245° |
| 2026-04-17 07:01 | -24.72177 | 47.77189 | 36017 ft | 476 kts | 245° |
| 2026-04-17 07:02 | -24.74789 | 47.70498 | 36008 ft | 472 kts | 245° |
| 2026-04-17 07:02 | -24.77351 | 47.63882 | 36008 ft | 468 kts | 245° |
| 2026-04-17 07:03 | -24.79900 | 47.57297 | 36015 ft | 467 kts | 245° |
| 2026-04-17 07:03 | -24.82447 | 47.50700 | 36012 ft | 467 kts | 245° |
| 2026-04-17 07:04 | -24.84969 | 47.44148 | 36007 ft | 466 kts | 245° |
| 2026-04-17 07:04 | -24.87489 | 47.37579 | 36027 ft | 469 kts | 245° |
| 2026-04-17 07:05 | -24.90048 | 47.30978 | 36009 ft | 466 kts | 245° |
| 2026-04-17 07:05 | -24.92628 | 47.24416 | 35990 ft | 466 kts | 244° |
| 2026-04-17 07:06 | -24.95188 | 47.17842 | 35982 ft | 466 kts | 245° |
| 2026-04-17 07:06 | -24.97705 | 47.11322 | 35978 ft | 466 kts | 245° |
| 2026-04-17 07:07 | -25.00229 | 47.04706 | 35957 ft | 465 kts | 245° |
| 2026-04-17 07:07 | -25.02752 | 46.98137 | 35965 ft | 466 kts | 245° |
| 2026-04-17 07:08 | -25.05065 | 46.91525 | 35975 ft | 464 kts | 248° |
| 2026-04-17 07:08 | -25.07178 | 46.84861 | 35962 ft | 457 kts | 249° |
| 2026-04-17 07:09 | -25.09234 | 46.78266 | 35968 ft | 451 kts | 249° |
| 2026-04-17 07:09 | -25.11254 | 46.71740 | 35978 ft | 446 kts | 249° |
| 2026-04-17 07:10 | -25.13244 | 46.65288 | 35985 ft | 442 kts | 249° |
| 2026-04-17 07:10 | -25.15219 | 46.58880 | 35990 ft | 438 kts | 249° |
| 2026-04-17 07:11 | -25.17172 | 46.52526 | 35991 ft | 435 kts | 249° |
| 2026-04-17 07:11 | -25.19104 | 46.46230 | 35989 ft | 432 kts | 248° |
| 2026-04-17 07:12 | -25.21013 | 46.40002 | 35994 ft | 429 kts | 248° |
| 2026-04-17 07:12 | -25.22918 | 46.33773 | 35990 ft | 426 kts | 248° |
| 2026-04-17 07:13 | -25.24810 | 46.27582 | 35994 ft | 424 kts | 249° |
| 2026-04-17 07:13 | -25.26684 | 46.21422 | 35996 ft | 422 kts | 248° |
| 2026-04-17 07:14 | -25.28551 | 46.15293 | 35994 ft | 420 kts | 248° |
| 2026-04-17 07:14 | -25.30394 | 46.09227 | 35994 ft | 418 kts | 248° |
| 2026-04-17 07:15 | -25.32239 | 46.03133 | 35999 ft | 416 kts | 249° |
| 2026-04-17 07:15 | -25.34068 | 45.97070 | 36001 ft | 415 kts | 248° |
| 2026-04-17 07:16 | -25.35894 | 45.91032 | 36001 ft | 413 kts | 248° |
| 2026-04-17 07:16 | -25.37702 | 45.85047 | 36004 ft | 412 kts | 248° |
| 2026-04-17 07:17 | -25.39516 | 45.79037 | 35993 ft | 412 kts | 248° |
| 2026-04-17 07:17 | -25.42223 | 45.70035 | 36001 ft | 410 kts | 248° |
| 2026-04-17 07:18 | -25.44017 | 45.64054 | 35998 ft | 409 kts | 248° |
| 2026-04-17 07:18 | -25.45807 | 45.58079 | 35996 ft | 408 kts | 248° |
| 2026-04-17 07:19 | -25.47592 | 45.52118 | 35994 ft | 408 kts | 248° |
| 2026-04-17 07:19 | -25.49365 | 45.46170 | 36002 ft | 407 kts | 248° |
| 2026-04-17 07:20 | -25.51127 | 45.40255 | 35996 ft | 406 kts | 248° |
| 2026-04-17 07:20 | -25.52896 | 45.34318 | 36003 ft | 405 kts | 248° |
| 2026-04-17 07:21 | -25.54659 | 45.28380 | 35999 ft | 405 kts | 248° |
| 2026-04-17 07:21 | -25.56502 | 45.22534 | 35974 ft | 403 kts | 243° |
| 2026-04-17 07:22 | -25.58477 | 45.16706 | 35752 ft | 411 kts | 244° |
| 2026-04-17 07:22 | -25.59556 | 45.13709 | 35248 ft | 423 kts | 244° |
| 2026-04-17 07:22 | -25.60691 | 45.10685 | 35133 ft | 428 kts | 249° |
| 2026-04-17 07:23 | -25.61612 | 45.07488 | 35041 ft | 442 kts | 252° |
| 2026-04-17 07:23 | -25.62490 | 45.04188 | 35022 ft | 451 kts | 251° |
| 2026-04-17 07:23 | -25.64693 | 44.97539 | 35012 ft | 466 kts | 246° |
| 2026-04-17 07:24 | -25.67210 | 44.90799 | 35017 ft | 479 kts | 246° |
| 2026-04-17 07:24 | -25.69673 | 44.83943 | 35010 ft | 482 kts | 248° |
| 2026-04-17 07:25 | -25.70876 | 44.80469 | 35267 ft | 482 kts | 248° |
| 2026-04-17 07:25 | -25.72057 | 44.77008 | 35753 ft | 477 kts | 248° |
| 2026-04-17 07:25 | -25.73216 | 44.73579 | 36236 ft | 472 kts | 248° |
| 2026-04-17 07:25 | -25.74361 | 44.70182 | 36673 ft | 469 kts | 248° |
| 2026-04-17 07:26 | -25.75499 | 44.66803 | 37019 ft | 467 kts | 248° |
| 2026-04-17 07:26 | -25.76645 | 44.63403 | 36990 ft | 471 kts | 248° |
| 2026-04-17 07:26 | -25.78923 | 44.56641 | 36993 ft | 468 kts | 247° |
| 2026-04-17 07:27 | -25.81196 | 44.49891 | 37007 ft | 465 kts | 247° |
| 2026-04-17 07:27 | -25.83455 | 44.43173 | 37002 ft | 464 kts | 247° |
| 2026-04-17 07:28 | -25.85709 | 44.36458 | 37006 ft | 464 kts | 247° |
| 2026-04-17 07:28 | -25.87959 | 44.29743 | 37008 ft | 464 kts | 247° |
| 2026-04-17 07:29 | -25.90209 | 44.23016 | 37012 ft | 465 kts | 247° |
| 2026-04-17 07:29 | -25.92462 | 44.16266 | 37015 ft | 466 kts | 247° |
| 2026-04-17 07:30 | -25.94700 | 44.09551 | 37015 ft | 466 kts | 247° |
| 2026-04-17 07:30 | -25.96952 | 44.02778 | 37014 ft | 467 kts | 247° |
| 2026-04-17 07:31 | -25.99203 | 43.95999 | 37011 ft | 467 kts | 248° |
| 2026-04-17 07:31 | -26.01449 | 43.89224 | 37014 ft | 467 kts | 248° |
| 2026-04-17 07:32 | -26.03691 | 43.82446 | 37012 ft | 467 kts | 248° |
| 2026-04-17 07:32 | -26.05934 | 43.75657 | 37012 ft | 467 kts | 248° |
| 2026-04-17 07:33 | -26.08169 | 43.68877 | 37021 ft | 467 kts | 248° |
| 2026-04-17 07:33 | -26.10399 | 43.62100 | 37018 ft | 466 kts | 248° |
| 2026-04-17 07:34 | -26.12612 | 43.55365 | 37019 ft | 466 kts | 248° |
| 2026-04-17 07:34 | -26.14833 | 43.48590 | 37018 ft | 466 kts | 248° |
| 2026-04-17 07:35 | -26.17052 | 43.41810 | 37020 ft | 466 kts | 248° |
| 2026-04-17 07:35 | -26.19267 | 43.35031 | 37021 ft | 466 kts | 248° |
| 2026-04-17 07:36 | -26.21479 | 43.28249 | 37021 ft | 466 kts | 248° |
| 2026-04-17 07:36 | -26.23686 | 43.21468 | 37023 ft | 465 kts | 248° |
| 2026-04-17 07:37 | -26.25889 | 43.14689 | 37024 ft | 465 kts | 248° |
| 2026-04-17 07:37 | -26.28091 | 43.07900 | 37023 ft | 465 kts | 248° |
| 2026-04-17 07:38 | -26.30289 | 43.01112 | 37026 ft | 465 kts | 248° |
| 2026-04-17 07:38 | -26.32469 | 42.94367 | 37024 ft | 465 kts | 248° |
| 2026-04-17 07:39 | -26.34659 | 42.87578 | 37028 ft | 465 kts | 249° |
| 2026-04-17 07:39 | -26.36847 | 42.80781 | 37028 ft | 465 kts | 249° |
| 2026-04-17 07:40 | -26.39035 | 42.73973 | 37025 ft | 465 kts | 249° |
| 2026-04-17 07:40 | -26.41213 | 42.67183 | 37027 ft | 465 kts | 249° |
| 2026-04-17 07:41 | -26.43375 | 42.60434 | 37027 ft | 465 kts | 249° |
| 2026-04-17 07:41 | -26.45546 | 42.53641 | 37026 ft | 464 kts | 249° |
| 2026-04-17 07:42 | -26.47714 | 42.46844 | 37027 ft | 464 kts | 249° |
| 2026-04-17 07:42 | -26.49881 | 42.40039 | 37028 ft | 464 kts | 249° |
| 2026-04-17 07:43 | -26.52028 | 42.33283 | 37032 ft | 464 kts | 249° |
| 2026-04-17 07:43 | -26.54184 | 42.26486 | 37030 ft | 464 kts | 249° |
| 2026-04-17 07:44 | -26.56338 | 42.19685 | 37031 ft | 464 kts | 249° |
| 2026-04-17 07:44 | -26.58122 | 42.14040 | 37031 ft | 464 kts | 249° |
| 2026-04-17 07:45 | -26.60269 | 42.07238 | 37031 ft | 464 kts | 249° |
| 2026-04-17 07:45 | -26.62411 | 42.00436 | 37033 ft | 464 kts | 249° |
| 2026-04-17 07:46 | -26.64552 | 41.93628 | 37034 ft | 464 kts | 249° |
| 2026-04-17 07:46 | -26.66688 | 41.86817 | 37036 ft | 464 kts | 249° |
| 2026-04-17 07:47 | -26.68805 | 41.80058 | 37036 ft | 464 kts | 250° |
| 2026-04-17 07:47 | -26.70935 | 41.73244 | 37038 ft | 463 kts | 250° |
| 2026-04-17 07:48 | -26.73059 | 41.66436 | 37039 ft | 463 kts | 250° |
| 2026-04-17 07:48 | -26.75179 | 41.59630 | 37041 ft | 463 kts | 250° |
| 2026-04-17 07:49 | -26.77293 | 41.52826 | 37039 ft | 462 kts | 250° |
| 2026-04-17 07:49 | -26.79404 | 41.46022 | 37041 ft | 462 kts | 250° |
| 2026-04-17 07:50 | -26.81506 | 41.39232 | 37041 ft | 461 kts | 250° |
| 2026-04-17 07:50 | -26.83605 | 41.32442 | 37042 ft | 461 kts | 250° |
| 2026-04-17 07:51 | -26.85684 | 41.25700 | 37045 ft | 461 kts | 250° |
| 2026-04-17 07:51 | -26.87774 | 41.18911 | 37040 ft | 461 kts | 250° |
| 2026-04-17 07:52 | -26.89859 | 41.12125 | 37042 ft | 461 kts | 250° |
| 2026-04-17 07:52 | -26.91943 | 41.05331 | 37040 ft | 460 kts | 250° |
| 2026-04-17 07:53 | -26.94021 | 40.98543 | 37041 ft | 460 kts | 250° |
| 2026-04-17 07:53 | -26.96092 | 40.91761 | 37044 ft | 460 kts | 250° |
| 2026-04-17 07:54 | -26.98152 | 40.85007 | 37046 ft | 459 kts | 250° |
| 2026-04-17 07:54 | -27.00214 | 40.78231 | 37043 ft | 459 kts | 250° |
| 2026-04-17 07:55 | -27.02272 | 40.71455 | 37047 ft | 459 kts | 250° |
| 2026-04-17 07:55 | -27.04325 | 40.64683 | 37043 ft | 458 kts | 250° |
| 2026-04-17 07:56 | -27.06372 | 40.57914 | 37044 ft | 458 kts | 250° |
| 2026-04-17 07:56 | -27.08417 | 40.51144 | 37046 ft | 457 kts | 250° |
| 2026-04-17 07:57 | -27.10452 | 40.44391 | 37046 ft | 457 kts | 250° |
| 2026-04-17 07:57 | -27.12484 | 40.37633 | 37045 ft | 456 kts | 250° |
| 2026-04-17 07:58 | -27.14510 | 40.30887 | 37047 ft | 455 kts | 250° |
| 2026-04-17 07:58 | -27.16527 | 40.24152 | 37045 ft | 455 kts | 250° |
| 2026-04-17 07:59 | -27.18530 | 40.17455 | 37047 ft | 455 kts | 250° |
| 2026-04-17 07:59 | -27.20539 | 40.10723 | 37045 ft | 454 kts | 250° |
| 2026-04-17 08:00 | -27.22545 | 40.03989 | 37045 ft | 454 kts | 251° |
| 2026-04-17 08:00 | -27.24546 | 39.97257 | 37047 ft | 454 kts | 251° |
| 2026-04-17 08:01 | -27.26541 | 39.90533 | 37045 ft | 453 kts | 251° |
| 2026-04-17 08:01 | -27.28533 | 39.83805 | 37046 ft | 453 kts | 251° |
| 2026-04-17 08:02 | -27.30522 | 39.77076 | 37048 ft | 453 kts | 251° |
| 2026-04-17 08:02 | -27.32503 | 39.70358 | 37048 ft | 453 kts | 251° |
| 2026-04-17 08:03 | -27.34482 | 39.63635 | 37049 ft | 452 kts | 251° |
| 2026-04-17 08:03 | -27.36455 | 39.56917 | 37044 ft | 452 kts | 251° |
| 2026-04-17 08:04 | -27.38414 | 39.50236 | 37049 ft | 452 kts | 251° |
| 2026-04-17 08:04 | -27.40380 | 39.43518 | 37055 ft | 452 kts | 251° |
| 2026-04-17 08:05 | -27.42343 | 39.36797 | 37048 ft | 452 kts | 251° |
| 2026-04-17 08:05 | -27.44303 | 39.30069 | 37050 ft | 451 kts | 251° |
| 2026-04-17 08:06 | -27.46259 | 39.23346 | 37049 ft | 451 kts | 251° |
| 2026-04-17 08:06 | -27.48207 | 39.16634 | 37050 ft | 451 kts | 251° |
| 2026-04-17 08:07 | -27.50142 | 39.09954 | 37048 ft | 450 kts | 251° |
| 2026-04-17 08:07 | -27.52080 | 39.03251 | 37046 ft | 450 kts | 251° |
| 2026-04-17 08:08 | -27.54016 | 38.96540 | 37051 ft | 450 kts | 251° |
| 2026-04-17 08:08 | -27.55948 | 38.89832 | 37046 ft | 449 kts | 251° |
| 2026-04-17 08:09 | -27.57872 | 38.83135 | 37047 ft | 449 kts | 251° |
| 2026-04-17 08:09 | -27.59793 | 38.76438 | 37045 ft | 448 kts | 251° |
| 2026-04-17 08:10 | -27.61697 | 38.69786 | 37048 ft | 448 kts | 251° |
| 2026-04-17 08:10 | -27.63605 | 38.63104 | 37042 ft | 448 kts | 251° |
| 2026-04-17 08:11 | -27.65512 | 38.56415 | 37045 ft | 447 kts | 251° |
| 2026-04-17 08:11 | -27.67415 | 38.49724 | 37044 ft | 447 kts | 251° |
| 2026-04-17 08:12 | -27.69313 | 38.43039 | 37043 ft | 447 kts | 251° |
| 2026-04-17 08:12 | -27.71195 | 38.36394 | 37041 ft | 447 kts | 251° |
| 2026-04-17 08:13 | -27.73085 | 38.29712 | 37041 ft | 447 kts | 251° |
| 2026-04-17 08:14 | -27.75913 | 38.19682 | 37041 ft | 447 kts | 251° |
| 2026-04-17 08:14 | -27.77798 | 38.12984 | 37038 ft | 447 kts | 251° |
| 2026-04-17 08:15 | -27.79675 | 38.06297 | 37042 ft | 447 kts | 251° |
| 2026-04-17 08:15 | -27.81547 | 37.99612 | 37042 ft | 447 kts | 251° |
| 2026-04-17 08:16 | -27.83406 | 37.92962 | 37041 ft | 446 kts | 251° |
| 2026-04-17 08:16 | -27.85273 | 37.86271 | 37040 ft | 446 kts | 251° |
| 2026-04-17 08:17 | -27.87134 | 37.79584 | 37040 ft | 446 kts | 251° |
| 2026-04-17 08:17 | -27.88992 | 37.72898 | 37040 ft | 446 kts | 251° |
| 2026-04-17 08:18 | -27.90848 | 37.66204 | 37037 ft | 445 kts | 251° |
| 2026-04-17 08:18 | -27.92699 | 37.59513 | 37041 ft | 445 kts | 251° |
| 2026-04-17 08:19 | -27.94547 | 37.52821 | 37034 ft | 445 kts | 251° |
| 2026-04-17 08:19 | -27.96379 | 37.46170 | 37036 ft | 445 kts | 251° |
| 2026-04-17 08:20 | -27.98214 | 37.39496 | 37035 ft | 445 kts | 251° |
| 2026-04-17 08:20 | -28.00048 | 37.32811 | 37036 ft | 444 kts | 251° |
| 2026-04-17 08:21 | -28.01877 | 37.26131 | 37036 ft | 444 kts | 252° |
| 2026-04-17 08:21 | -28.03701 | 37.19454 | 37037 ft | 444 kts | 252° |
| 2026-04-17 08:22 | -28.05522 | 37.12774 | 37037 ft | 444 kts | 252° |
| 2026-04-17 08:22 | -28.07338 | 37.06099 | 37035 ft | 443 kts | 252° |
| 2026-04-17 08:23 | -28.09153 | 36.99415 | 37032 ft | 443 kts | 252° |
| 2026-04-17 08:23 | -28.10948 | 36.92789 | 37033 ft | 443 kts | 252° |
| 2026-04-17 08:24 | -28.12751 | 36.86117 | 37033 ft | 442 kts | 252° |
| 2026-04-17 08:24 | -28.14549 | 36.79450 | 37034 ft | 442 kts | 252° |
| 2026-04-17 08:25 | -28.16341 | 36.72792 | 37029 ft | 441 kts | 252° |
| 2026-04-17 08:25 | -28.18129 | 36.66138 | 37027 ft | 441 kts | 252° |
| 2026-04-17 08:26 | -28.19913 | 36.59480 | 37028 ft | 441 kts | 252° |
| 2026-04-17 08:26 | -28.21692 | 36.52828 | 37029 ft | 440 kts | 253° |
| 2026-04-17 08:27 | -28.23455 | 36.46219 | 37026 ft | 440 kts | 253° |
| 2026-04-17 08:27 | -28.25225 | 36.39575 | 37023 ft | 440 kts | 253° |
| 2026-04-17 08:28 | -28.26987 | 36.32941 | 37020 ft | 439 kts | 253° |
| 2026-04-17 08:28 | -28.28747 | 36.26301 | 37020 ft | 439 kts | 253° |
| 2026-04-17 08:29 | -28.30499 | 36.19679 | 37021 ft | 438 kts | 253° |
| 2026-04-17 08:29 | -28.31952 | 36.14174 | 37019 ft | 438 kts | 253° |
| 2026-04-17 08:30 | -28.33696 | 36.07548 | 37013 ft | 437 kts | 253° |
| 2026-04-17 08:30 | -28.35435 | 36.00925 | 37014 ft | 437 kts | 253° |
| 2026-04-17 08:31 | -28.37178 | 35.94306 | 37015 ft | 437 kts | 252° |
| 2026-04-17 08:31 | -28.39244 | 35.87864 | 37016 ft | 437 kts | 250° |
| 2026-04-17 08:32 | -28.41434 | 35.81421 | 37012 ft | 437 kts | 250° |
| 2026-04-17 08:32 | -28.43614 | 35.74972 | 37010 ft | 437 kts | 250° |
| 2026-04-17 08:33 | -28.45773 | 35.68524 | 37012 ft | 436 kts | 250° |
| 2026-04-17 08:33 | -28.47923 | 35.62069 | 37007 ft | 436 kts | 250° |
| 2026-04-17 08:34 | -28.50068 | 35.55618 | 37006 ft | 436 kts | 250° |
| 2026-04-17 08:34 | -28.52212 | 35.49155 | 37006 ft | 436 kts | 250° |
| 2026-04-17 08:35 | -28.54336 | 35.42742 | 37007 ft | 436 kts | 250° |
| 2026-04-17 08:35 | -28.56473 | 35.36281 | 37002 ft | 436 kts | 251° |
| 2026-04-17 08:36 | -28.58605 | 35.29822 | 37004 ft | 436 kts | 251° |
| 2026-04-17 08:36 | -28.60733 | 35.23364 | 36997 ft | 435 kts | 251° |
| 2026-04-17 08:37 | -28.62856 | 35.16908 | 36997 ft | 435 kts | 251° |
| 2026-04-17 08:37 | -28.64976 | 35.10449 | 36995 ft | 435 kts | 251° |
| 2026-04-17 08:38 | -28.67076 | 35.04038 | 36992 ft | 434 kts | 251° |
| 2026-04-17 08:38 | -28.69184 | 34.97593 | 36992 ft | 434 kts | 251° |
| 2026-04-17 08:39 | -28.71291 | 34.91139 | 36989 ft | 434 kts | 251° |
| 2026-04-17 08:39 | -28.73391 | 34.84693 | 36990 ft | 434 kts | 251° |
| 2026-04-17 08:40 | -28.75489 | 34.78242 | 36991 ft | 434 kts | 251° |
| 2026-04-17 08:40 | -28.77584 | 34.71786 | 36985 ft | 433 kts | 251° |
| 2026-04-17 08:41 | -28.79673 | 34.65338 | 36984 ft | 433 kts | 252° |
| 2026-04-17 08:41 | -28.81746 | 34.58924 | 36981 ft | 433 kts | 252° |
| 2026-04-17 08:42 | -28.83825 | 34.52478 | 36978 ft | 432 kts | 252° |
| 2026-04-17 08:42 | -28.85898 | 34.46039 | 36981 ft | 432 kts | 252° |
| 2026-04-17 08:43 | -28.87973 | 34.39594 | 36977 ft | 432 kts | 252° |
| 2026-04-17 08:43 | -28.90034 | 34.33199 | 36971 ft | 432 kts | 252° |
| 2026-04-17 08:44 | -28.92103 | 34.26760 | 36971 ft | 431 kts | 252° |
| 2026-04-17 08:44 | -28.94163 | 34.20329 | 36967 ft | 431 kts | 252° |
| 2026-04-17 08:45 | -28.96220 | 34.13896 | 36967 ft | 431 kts | 252° |
| 2026-04-17 08:45 | -28.98270 | 34.07470 | 36964 ft | 430 kts | 252° |
| 2026-04-17 08:46 | -29.00315 | 34.01047 | 36965 ft | 430 kts | 252° |
| 2026-04-17 08:46 | -29.02349 | 33.94650 | 36957 ft | 430 kts | 252° |
| 2026-04-17 08:47 | -29.04386 | 33.88228 | 36956 ft | 430 kts | 253° |
| 2026-04-17 08:47 | -29.06420 | 33.81804 | 36955 ft | 430 kts | 253° |
| 2026-04-17 08:48 | -29.08452 | 33.75375 | 36950 ft | 430 kts | 253° |
| 2026-04-17 08:48 | -29.10482 | 33.68941 | 36951 ft | 430 kts | 253° |
| 2026-04-17 08:49 | -29.12506 | 33.62510 | 36940 ft | 430 kts | 253° |
| 2026-04-17 08:49 | -29.14527 | 33.56078 | 36943 ft | 429 kts | 253° |
| 2026-04-17 08:50 | -29.16547 | 33.49638 | 36941 ft | 429 kts | 253° |
| 2026-04-17 08:50 | -29.18549 | 33.43242 | 36937 ft | 429 kts | 253° |
| 2026-04-17 08:51 | -29.20558 | 33.36812 | 36933 ft | 429 kts | 253° |
| 2026-04-17 08:51 | -29.22564 | 33.30374 | 36929 ft | 429 kts | 254° |
| 2026-04-17 08:52 | -29.24565 | 33.23942 | 36929 ft | 428 kts | 254° |
| 2026-04-17 08:52 | -29.26560 | 33.17513 | 36922 ft | 428 kts | 254° |
| 2026-04-17 08:53 | -29.28584 | 33.11091 | 36918 ft | 429 kts | 252° |
| 2026-04-17 08:53 | -29.30830 | 33.04745 | 36919 ft | 429 kts | 251° |
| 2026-04-17 08:54 | -29.33098 | 32.98467 | 36912 ft | 429 kts | 252° |
| 2026-04-17 08:54 | -29.35365 | 32.92100 | 36914 ft | 429 kts | 252° |
| 2026-04-17 08:55 | -29.37585 | 32.85797 | 36909 ft | 428 kts | 252° |
| 2026-04-17 08:55 | -29.39809 | 32.79457 | 36902 ft | 428 kts | 252° |
| 2026-04-17 08:56 | -29.42032 | 32.73110 | 36900 ft | 428 kts | 252° |
| 2026-04-17 08:56 | -29.44247 | 32.66774 | 36896 ft | 428 kts | 252° |
| 2026-04-17 08:57 | -29.46459 | 32.60436 | 36891 ft | 427 kts | 252° |
| 2026-04-17 08:57 | -29.48653 | 32.54140 | 36893 ft | 427 kts | 252° |
| 2026-04-17 08:58 | -29.50856 | 32.47804 | 36888 ft | 427 kts | 253° |
| 2026-04-17 08:58 | -29.53057 | 32.41463 | 36880 ft | 427 kts | 253° |
| 2026-04-17 08:59 | -29.55253 | 32.35124 | 36880 ft | 427 kts | 253° |
| 2026-04-17 08:59 | -29.57449 | 32.28775 | 36875 ft | 427 kts | 253° |
| 2026-04-17 09:00 | -29.59639 | 32.22427 | 36869 ft | 427 kts | 253° |
| 2026-04-17 09:00 | -29.61828 | 32.16072 | 36856 ft | 427 kts | 253° |
| 2026-04-17 09:01 | -29.64084 | 32.09746 | 36863 ft | 430 kts | 250° |
| 2026-04-17 09:01 | -29.67072 | 32.03738 | 36864 ft | 436 kts | 242° |
| 2026-04-17 09:02 | -29.70497 | 31.98021 | 36857 ft | 437 kts | 242° |
| 2026-04-17 09:02 | -29.73957 | 31.92261 | 36857 ft | 436 kts | 242° |
| 2026-04-17 09:03 | -29.77389 | 31.86505 | 36853 ft | 436 kts | 242° |
| 2026-04-17 09:03 | -29.80807 | 31.80739 | 36848 ft | 435 kts | 242° |
| 2026-04-17 09:04 | -29.84214 | 31.74978 | 36843 ft | 435 kts | 242° |
| 2026-04-17 09:04 | -29.87597 | 31.69249 | 36843 ft | 435 kts | 243° |
| 2026-04-17 09:05 | -29.90996 | 31.63485 | 36835 ft | 435 kts | 243° |
| 2026-04-17 09:05 | -29.94393 | 31.57717 | 36829 ft | 435 kts | 243° |
| 2026-04-17 09:06 | -29.97781 | 31.51956 | 36834 ft | 435 kts | 243° |
| 2026-04-17 09:06 | -30.01177 | 31.46175 | 36831 ft | 435 kts | 243° |
| 2026-04-17 09:07 | -30.04569 | 31.40391 | 36826 ft | 435 kts | 243° |
| 2026-04-17 09:07 | -30.07958 | 31.34603 | 36829 ft | 435 kts | 243° |
| 2026-04-17 09:08 | -30.11331 | 31.28835 | 36820 ft | 435 kts | 243° |
| 2026-04-17 09:08 | -30.14718 | 31.23035 | 36819 ft | 435 kts | 243° |
| 2026-04-17 09:09 | -30.18106 | 31.17225 | 36822 ft | 435 kts | 243° |
| 2026-04-17 09:09 | -30.21492 | 31.11410 | 36820 ft | 436 kts | 243° |
| 2026-04-17 09:10 | -30.26539 | 31.02725 | 36819 ft | 436 kts | 243° |
| 2026-04-17 09:10 | -30.29917 | 30.96904 | 36815 ft | 436 kts | 243° |
| 2026-04-17 09:11 | -30.33293 | 30.91075 | 36820 ft | 435 kts | 243° |
| 2026-04-17 09:11 | -30.36668 | 30.85240 | 36822 ft | 436 kts | 244° |
| 2026-04-17 09:12 | -30.40037 | 30.79408 | 36819 ft | 435 kts | 244° |
| 2026-04-17 09:12 | -30.43402 | 30.73573 | 36821 ft | 435 kts | 244° |
| 2026-04-17 09:13 | -30.46742 | 30.67774 | 36826 ft | 435 kts | 244° |
| 2026-04-17 09:13 | -30.50102 | 30.61932 | 36826 ft | 435 kts | 244° |
| 2026-04-17 09:14 | -30.53459 | 30.56084 | 36817 ft | 435 kts | 244° |
| 2026-04-17 09:14 | -30.56247 | 30.51221 | 36825 ft | 435 kts | 244° |
| 2026-04-17 09:15 | -30.60142 | 30.44418 | 36811 ft | 435 kts | 244° |
| 2026-04-17 09:15 | -30.62946 | 30.39513 | 36834 ft | 435 kts | 244° |
| 2026-04-17 09:16 | -30.66268 | 30.33691 | 36845 ft | 435 kts | 244° |
| 2026-04-17 09:16 | -30.69614 | 30.27819 | 36809 ft | 435 kts | 244° |
| 2026-04-17 09:17 | -30.73110 | 30.22034 | 36828 ft | 439 kts | 241° |
| 2026-04-17 09:17 | -30.76827 | 30.16384 | 36824 ft | 439 kts | 241° |
| 2026-04-17 09:18 | -30.80547 | 30.10753 | 36827 ft | 438 kts | 241° |
| 2026-04-17 09:18 | -30.84222 | 30.05143 | 36830 ft | 437 kts | 241° |
| 2026-04-17 09:19 | -30.87895 | 29.99509 | 36838 ft | 436 kts | 242° |
| 2026-04-17 09:19 | -30.91564 | 29.93865 | 36839 ft | 437 kts | 242° |
| 2026-04-17 09:20 | -30.95236 | 29.88207 | 36837 ft | 438 kts | 242° |
| 2026-04-17 09:20 | -30.98886 | 29.82579 | 36834 ft | 438 kts | 242° |
| 2026-04-17 09:21 | -31.02560 | 29.76904 | 36837 ft | 439 kts | 242° |
| 2026-04-17 09:21 | -31.06240 | 29.71211 | 36856 ft | 440 kts | 242° |
| 2026-04-17 09:22 | -31.18742 | 29.51802 | 36876 ft | 439 kts | 243° |
| 2026-04-17 09:22 | -31.42482 | 29.03026 | 36899 ft | 436 kts | 248° |
| 2026-04-17 09:23 | -31.69916 | 28.45955 | 36857 ft | 441 kts | 248° |
| 2026-04-17 09:23 | -32.10213 | 27.60439 | 36915 ft | 443 kts | 248° |
| 2026-04-17 09:24 | -32.46178 | 26.66447 | 36775 ft | 440 kts | 253° |
| 2026-04-17 09:24 | -32.55005 | 26.42796 | 36814 ft | 441 kts | 253° |
| 2026-04-17 09:25 | -32.57490 | 26.36141 | 36781 ft | 442 kts | 253° |
| 2026-04-17 09:25 | -32.59963 | 26.29507 | 36774 ft | 443 kts | 253° |
| 2026-04-17 09:26 | -32.64414 | 26.17551 | 36875 ft | 441 kts | 253° |
| 2026-04-17 09:26 | -32.83744 | 25.65023 | 36821 ft | 443 kts | 254° |
| 2026-04-17 09:26 | -33.22716 | 24.56476 | 36864 ft | 442 kts | 256° |
| 2026-04-17 09:27 | -33.60299 | 23.48150 | 36833 ft | 441 kts | 257° |
| 2026-04-17 09:27 | -33.69988 | 22.95784 | 36828 ft | 370 kts | 275° |
| 2026-04-17 09:27 | -33.71446 | 22.79602 | 37028 ft | 408 kts | 271° |
| 2026-04-17 09:28 | -33.71863 | 22.76182 | 36906 ft | 418 kts | 271° |
| 2026-04-17 09:28 | -33.72270 | 22.72699 | 36848 ft | 423 kts | 271° |
| 2026-04-17 09:28 | -33.72983 | 22.65651 | 36768 ft | 427 kts | 272° |
| 2026-04-17 09:29 | -33.73648 | 22.58520 | 36768 ft | 431 kts | 272° |
| 2026-04-17 09:29 | -33.74320 | 22.51368 | 36768 ft | 431 kts | 272° |
| 2026-04-17 09:30 | -33.74993 | 22.44245 | 36759 ft | 431 kts | 272° |
| 2026-04-17 09:30 | -33.75668 | 22.37084 | 36762 ft | 430 kts | 272° |
| 2026-04-17 09:31 | -33.76635 | 22.26767 | 36765 ft | 428 kts | 272° |
| 2026-04-17 09:31 | -33.81734 | 21.70491 | 36778 ft | 425 kts | 272° |
| 2026-04-17 09:32 | -33.86610 | 21.13819 | 36811 ft | 425 kts | 272° |
| 2026-04-17 09:32 | -33.88019 | 20.96803 | 36794 ft | 425 kts | 272° |
| 2026-04-17 09:33 | -33.88602 | 20.89715 | 36798 ft | 426 kts | 272° |
| 2026-04-17 09:33 | -33.89180 | 20.82616 | 36797 ft | 427 kts | 272° |
| 2026-04-17 09:34 | -33.89757 | 20.75501 | 36788 ft | 426 kts | 272° |
| 2026-04-17 09:34 | -33.90328 | 20.68412 | 36787 ft | 425 kts | 272° |
| 2026-04-17 09:35 | -33.90888 | 20.61328 | 36800 ft | 425 kts | 272° |
| 2026-04-17 09:35 | -33.91645 | 20.54297 | 36781 ft | 429 kts | 268° |
| 2026-04-17 09:36 | -33.92756 | 20.47227 | 36794 ft | 429 kts | 268° |
| 2026-04-17 09:36 | -33.93873 | 20.40163 | 36796 ft | 430 kts | 268° |
| 2026-04-17 09:37 | -33.94962 | 20.33065 | 36798 ft | 431 kts | 268° |
| 2026-04-17 09:37 | -33.96027 | 20.26004 | 36780 ft | 431 kts | 268° |
| 2026-04-17 09:38 | -33.97089 | 20.18888 | 36786 ft | 431 kts | 268° |
| 2026-04-17 09:38 | -33.97793 | 20.11837 | 36663 ft | 415 kts | 274° |
| 2026-04-17 09:39 | -33.97972 | 20.08367 | 36062 ft | 413 kts | 274° |
| 2026-04-17 09:39 | -33.98141 | 20.04928 | 35453 ft | 411 kts | 275° |
| 2026-04-17 09:39 | -33.98309 | 20.01482 | 34688 ft | 413 kts | 275° |
| 2026-04-17 09:39 | -33.98479 | 19.98024 | 33900 ft | 415 kts | 275° |
| 2026-04-17 09:40 | -33.98651 | 19.94587 | 33010 ft | 417 kts | 275° |
| 2026-04-17 09:40 | -33.98829 | 19.91089 | 32085 ft | 419 kts | 274° |
| 2026-04-17 09:40 | -33.99009 | 19.87577 | 31173 ft | 421 kts | 274° |
| 2026-04-17 09:40 | -33.99191 | 19.84053 | 30406 ft | 420 kts | 274° |
| 2026-04-17 09:41 | -33.99372 | 19.80541 | 29683 ft | 417 kts | 274° |
| 2026-04-17 09:41 | -33.99554 | 19.77069 | 28938 ft | 413 kts | 274° |
| 2026-04-17 09:41 | -33.99734 | 19.73619 | 28255 ft | 409 kts | 274° |
| 2026-04-17 09:41 | -33.99909 | 19.70220 | 27624 ft | 404 kts | 274° |
| 2026-04-17 09:42 | -34.00077 | 19.66878 | 26985 ft | 401 kts | 274° |
| 2026-04-17 09:42 | -34.00243 | 19.63533 | 26349 ft | 398 kts | 274° |
| 2026-04-17 09:42 | -34.00407 | 19.60211 | 25741 ft | 396 kts | 274° |
| 2026-04-17 09:42 | -34.00568 | 19.56944 | 25126 ft | 394 kts | 274° |
| 2026-04-17 09:43 | -34.00729 | 19.53667 | 24556 ft | 390 kts | 273° |
| 2026-04-17 09:43 | -34.00862 | 19.50946 | 24022 ft | 389 kts | 273° |
| 2026-04-17 09:43 | -34.01018 | 19.47677 | 23459 ft | 387 kts | 273° |
| 2026-04-17 09:43 | -34.01173 | 19.44430 | 22704 ft | 387 kts | 272° |
| 2026-04-17 09:44 | -34.01332 | 19.41209 | 22087 ft | 383 kts | 272° |
| 2026-04-17 09:44 | -34.01485 | 19.38030 | 21512 ft | 380 kts | 273° |
| 2026-04-17 09:44 | -34.01487 | 19.34875 | 20899 ft | 373 kts | 278° |
| 2026-04-17 09:44 | -34.01330 | 19.31756 | 20353 ft | 370 kts | 279° |
| 2026-04-17 09:45 | -34.01160 | 19.28658 | 19761 ft | 369 kts | 279° |
| 2026-04-17 09:45 | -34.00992 | 19.25591 | 19201 ft | 366 kts | 279° |
| 2026-04-17 09:45 | -34.00826 | 19.22537 | 18640 ft | 365 kts | 278° |
| 2026-04-17 09:45 | -34.00666 | 19.19497 | 18098 ft | 364 kts | 278° |
| 2026-04-17 09:46 | -34.00512 | 19.16485 | 17440 ft | 363 kts | 278° |
| 2026-04-17 09:46 | -34.00358 | 19.13460 | 16861 ft | 360 kts | 278° |
| 2026-04-17 09:46 | -34.00205 | 19.10467 | 16302 ft | 357 kts | 278° |
| 2026-04-17 09:46 | -34.00052 | 19.07482 | 15749 ft | 354 kts | 277° |
| 2026-04-17 09:47 | -33.99942 | 19.05330 | 15363 ft | 352 kts | 278° |
| 2026-04-17 09:47 | -33.99789 | 19.02391 | 14836 ft | 350 kts | 278° |
| 2026-04-17 09:47 | -33.99637 | 18.99457 | 14286 ft | 350 kts | 278° |
| 2026-04-17 09:47 | -33.99480 | 18.96531 | 13759 ft | 349 kts | 277° |
| 2026-04-17 09:48 | -33.99326 | 18.93611 | 13153 ft | 348 kts | 277° |
| 2026-04-17 09:48 | -33.99176 | 18.90708 | 12618 ft | 345 kts | 277° |
| 2026-04-17 09:48 | -33.99026 | 18.87856 | 12405 ft | 336 kts | 277° |
| 2026-04-17 09:48 | -33.98887 | 18.85180 | 12213 ft | 302 kts | 277° |
| 2026-04-17 09:49 | -33.98764 | 18.82791 | 12087 ft | 270 kts | 277° |
| 2026-04-17 09:49 | -33.98652 | 18.80656 | 11988 ft | 242 kts | 278° |
| 2026-04-17 09:49 | -33.98546 | 18.78686 | 11910 ft | 230 kts | 278° |
| 2026-04-17 09:49 | -33.98443 | 18.76779 | 11608 ft | 229 kts | 278° |
| 2026-04-17 09:50 | -33.98075 | 18.74938 | 10992 ft | 228 kts | 302° |
| 2026-04-17 09:50 | -33.97041 | 18.73474 | 10490 ft | 234 kts | 319° |
| 2026-04-17 09:50 | -33.95651 | 18.72481 | 9941 ft | 236 kts | 332° |
| 2026-04-17 09:50 | -33.94130 | 18.71733 | 9272 ft | 235 kts | 335° |
| 2026-04-17 09:51 | -33.92607 | 18.71059 | 8598 ft | 231 kts | 336° |
| 2026-04-17 09:51 | -33.91109 | 18.70417 | 7976 ft | 226 kts | 336° |
| 2026-04-17 09:51 | -33.89643 | 18.69875 | 7532 ft | 214 kts | 340° |
| 2026-04-17 09:51 | -33.88249 | 18.69431 | 7161 ft | 201 kts | 340° |
| 2026-04-17 09:52 | -33.86930 | 18.69020 | 6801 ft | 187 kts | 340° |
| 2026-04-17 09:52 | -33.85684 | 18.68638 | 6593 ft | 186 kts | 338° |
| 2026-04-17 09:52 | -33.84446 | 18.68213 | 6237 ft | 191 kts | 338° |
| 2026-04-17 09:52 | -33.83160 | 18.67719 | 5784 ft | 193 kts | 326° |
| 2026-04-17 09:53 | -33.82297 | 18.66603 | 5480 ft | 181 kts | 293° |
| 2026-04-17 09:53 | -33.81738 | 18.65244 | 5123 ft | 182 kts | 295° |
| 2026-04-17 09:53 | -33.81120 | 18.63927 | 4777 ft | 181 kts | 297° |
| 2026-04-17 09:53 | -33.80498 | 18.62603 | 4324 ft | 183 kts | 296° |
| 2026-04-17 09:54 | -33.79870 | 18.61293 | 3855 ft | 178 kts | 297° |
| 2026-04-17 09:54 | -33.79245 | 18.60073 | 3421 ft | 164 kts | 298° |
| 2026-04-17 09:54 | -33.78719 | 18.59012 | 3391 ft | 148 kts | 282° |
| 2026-04-17 09:54 | -33.79095 | 18.57791 | 3486 ft | 195 kts | 216° |
| 2026-04-17 09:55 | -33.80364 | 18.57184 | 3403 ft | 197 kts | 198° |
| 2026-04-17 09:55 | -33.81578 | 18.56582 | 3094 ft | 178 kts | 204° |
| 2026-04-17 09:55 | -33.82678 | 18.56164 | 3026 ft | 169 kts | 178° |
| 2026-04-17 09:55 | -33.83859 | 18.56454 | 2768 ft | 174 kts | 164° |
| 2026-04-17 09:56 | -33.85025 | 18.56712 | 2549 ft | 168 kts | 168° |
| 2026-04-17 09:56 | -33.86161 | 18.56953 | 2321 ft | 165 kts | 162° |
| 2026-04-17 09:56 | -33.87097 | 18.57216 | 2113 ft | 164 kts | 160° |
| 2026-04-17 09:56 | -33.88199 | 18.57556 | 1879 ft | 163 kts | 160° |
| 2026-04-17 09:57 | -33.89323 | 18.57906 | 1653 ft | 168 kts | 159° |
| 2026-04-17 09:57 | -33.90443 | 18.58263 | 1387 ft | 165 kts | 158° |
| 2026-04-17 09:57 | -33.91541 | 18.58610 | 1169 ft | 167 kts | 158° |
| 2026-04-17 09:57 | -33.92659 | 18.58960 | 935 ft | 166 kts | 159° |
| 2026-04-17 09:58 | -33.93715 | 18.59288 | 676 ft | 143 kts | 161° |
| 2026-04-17 09:58 | -33.94666 | 18.59619 | 474 ft | 140 kts | 155° |
| 2026-04-17 09:58 | -33.95619 | 18.59909 | 313 ft | 144 kts | 158° |
| 2026-04-17 09:58 | -33.96551 | 18.60188 | 171 ft | 123 kts | 158° |
| 2026-04-17 09:59 | -33.97251 | 18.60409 | 157 ft | 80 kts | 165° |
| 2026-04-17 09:59 | -33.97622 | 18.60521 | 156 ft | 33 kts | 165° |
| 2026-04-17 09:59 | -33.97776 | 18.60556 | 159 ft | 12 kts | 199° |
| 2026-04-17 09:59 | -33.97805 | 18.60486 | 159 ft | 10 kts | 283° |
| 2026-04-17 10:00 | -33.97772 | 18.60412 | 159 ft | 10 kts | 293° |
| 2026-04-17 10:00 | -33.97751 | 18.60327 | 161 ft | 15 kts | 287° |
| 2026-04-17 10:00 | -33.97711 | 18.60199 | 162 ft | 13 kts | 313° |
| 2026-04-17 10:00 | -33.97631 | 18.60156 | 161 ft | 13 kts | 336° |
| 2026-04-17 10:01 | -33.97553 | 18.60119 | 161 ft | 7 kts | 331° |
| 2026-04-17 10:01 | -33.97504 | 18.60090 | 162 ft | 8 kts | 335° |
| 2026-04-17 10:01 | -33.97451 | 18.60068 | 162 ft | 8 kts | 343° |
| 2026-04-17 10:01 | -33.97357 | 18.60037 | 162 ft | 25 kts | 342° |
| 2026-04-17 10:02 | -33.97192 | 18.59981 | 162 ft | 24 kts | 345° |
| 2026-04-17 10:02 | -33.97065 | 18.59953 | 162 ft | 16 kts | 349° |
| 2026-04-17 10:02 | -33.96959 | 18.59919 | 162 ft | 16 kts | 342° |
| 2026-04-17 10:02 | -33.96852 | 18.59885 | 162 ft | 16 kts | 345° |
| 2026-04-17 10:03 | -33.96772 | 18.59857 | 162 ft | 6 kts | 336° |
| 2026-04-17 10:03 | -33.96764 | 18.59823 | 162 ft | 4 kts | 272° |
| 2026-04-17 10:03 | -33.96768 | 18.59787 | 162 ft | 4 kts | 260° |
| 2026-04-17 10:03 | -33.96771 | 18.59767 | 162 ft | 2 kts | 258° |
| 2026-04-17 10:04 | -33.96773 | 18.59756 | 162 ft | 1 kts | 258° |
| 2026-04-17 10:04 | -33.96775 | 18.59747 | 162 ft | 1 kts | 258° |
| 2026-04-17 10:04 | -33.96775 | 18.59746 | 162 ft | 0 kts | 258° |
| 2026-04-17 10:05 | -33.96773 | 18.59756 | 162 ft | 1 kts | 261° |
| 2026-04-17 10:05 | -33.96773 | 18.59759 | 162 ft | 0 kts | 258° |